• Join FlightAware (Why Join?)
  • Login
  • US Flag 
09:21AM EDT


 

Airport Tracker/Info


-or-


 

Live Flight TrackerFlight Track Log ✈ FLG4099 ✈ 30-Apr-2013 ✈ KBTV - KDTW

Flight Track Log - Related Links

Times and Time Zones

All times are in EDT time to prevent confusion due to time zone crossing. See the FLG4099 flight status page for this flight to view local times or setup timezone preferences in your user account.

Time Position Orientation Groundspeed Altitude Reporting Facility
EDT Latitude Longitude Course Direction KTS MPH feet Rate Location/Type
07:13AM 44.4103 -73.3003 256° West 255 293 7,200  Level Boston Center
07:14AM 44.3947 -73.4017 258° West 261 300 10,200 2,100 Climbing Boston Center
07:15AM 44.3772 -73.5178 258° West 292 336 11,500 1,560 Climbing Boston Center
07:16AM 44.3569 -73.6478 258° West 333 383 13,400 1,860 Climbing Boston Center
07:17AM 44.3262 -73.9721 256° West  Level FlightAware Approximate
07:17AM 44.3369 -73.7694 257° West 354 407 15,300  Level Boston Center
07:18AM 44.3011 -74.1086 256° West  Level FlightAware Approximate
07:18AM 44.3144 -73.9081 257° West 360 414 17,200  Level Boston Center
07:19AM 44.2939 -74.0439 258° West 360 414 18,500 1,080 Climbing Boston Center
07:20AM 44.2667 -74.1969 256° West 365 420 19,400 900 Climbing Boston Center
07:21AM 44.2458 -74.3353 258° West 389 448 20,400 960 Climbing Boston Center
07:22AM 44.2203 -74.4881 257° West 402 463 21,400 960 Climbing Boston Center
07:23AM 44.1964 -74.6436 258° West 407 468 22,400 960 Climbing Boston Center
07:24AM 44.1725 -74.7964 258° West 413 475 23,400 960 Climbing Boston Center
07:25AM 44.1464 -74.9514 257° West 413 475 24,400 960 Climbing Boston Center
07:26AM 44.1200 -75.1067 257° West 413 475 25,400 960 Climbing Boston Center
07:27AM 44.0933 -75.2586 256° West 413 475 26,400 780 Climbing Boston Center
07:28AM 44.0686 -75.4136 258° West 413 475 27,000 540 Climbing Boston Center
07:29AM 44.0417 -75.5681 256° West 413 475 27,500 480 Climbing Boston Center
07:30AM 44.0122 -75.7283 256° West 418 481 28,000 240 Climbing Boston Center
07:31AM 43.9867 -75.8886 258° West 423 487 28,000  Level Boston Center
07:32AM 43.9586 -76.0486 256° West 428 493 28,000  Level Boston Center
07:33AM 43.9517 -76.2069 267° West 423 487 28,000  Level Boston Center
07:34AM 43.9461 -76.3708 267° West 423 487 28,000  Level Boston Center
07:35AM 43.9447 -76.5294 269° West 417 480 28,000  Level Boston Center
07:36AM 43.9333 -76.7333 266° West 410 472 28,000  Level Toronto Center
07:37AM 43.9167 -76.9000 262° West 410 472 28,000  Level Toronto Center
07:38AM 43.9167 -77.0333 270° West 410 472 28,000  Level Toronto Center
07:39AM 43.9000 -77.2000 262° West 410 472 28,000  Level Toronto Center
07:40AM 43.9167 -77.3833 277° West 420 483 28,000  Level Toronto Center
07:41AM 43.8833 -77.5333 253° West 420 483 28,000  Level Toronto Center
07:42AM 43.8500 -77.6833 253° West 420 483 28,000  Level Toronto Center
07:43AM 43.8333 -77.8500 262° West 410 472 28,000  Level Toronto Center
07:44AM 43.8000 -78.0000 253° West 410 472 28,000  Level Toronto Center
07:45AM 43.7833 -78.1500 261° West 410 472 28,000  Level Toronto Center
07:46AM 43.7500 -78.3167 255° West 410 472 28,000  Level Toronto Center
07:47AM 43.7167 -78.4500 251° West 410 472 28,000  Level Toronto Center
07:48AM 43.7167 -78.6167 270° West 410 472 28,000  Level Toronto Center
07:49AM 43.6833 -78.7500 251° West 410 472 28,000  Level Toronto Center
07:50AM 43.6167 -78.9167 241° Southwest 420 483 28,000  Level Toronto Center
07:51AM 43.5500 -79.0333 232° Southwest 420 483 28,000  Level Toronto Center
07:52AM 43.4833 -79.1667 235° Southwest 420 483 28,000  Level Toronto Center
07:53AM 43.4333 -79.3167 245° Southwest 420 483 28,000  Level Toronto Center
07:54AM 43.3667 -79.4500 236° Southwest 420 483 28,000  Level Toronto Center
07:55AM 43.3000 -79.5833 236° Southwest 420 483 28,000  Level Toronto Center
07:56AM 43.2333 -79.7167 236° Southwest 420 483 28,000  Level Toronto Center
07:57AM 43.1833 -79.8667 245° Southwest 420 483 28,000  Level Toronto Center
07:58AM 43.1167 -80.0000 236° Southwest 420 483 28,000 -420 Level Toronto Center
07:59AM 43.0500 -80.1333 236° Southwest 430 495 27,200 -1,200 Descending Toronto Center
08:00AM 43.0000 -80.2500 240° Southwest 420 483 25,700 -1,620 Descending Toronto Center
08:01AM 42.9333 -80.3833 236° Southwest 410 472 24,000 -1,380 Descending Toronto Center
08:02AM 42.8667 -80.5167 236° Southwest 410 472 23,000 -540 Descending Toronto Center
08:03AM 42.8167 -80.6567 244° Southwest 410 472 23,000  Level Cleveland Center
08:04AM 42.7581 -80.7839 238° Southwest 405 466 23,000  Level Cleveland Center
08:05AM 42.7014 -80.9167 240° Southwest 405 466 23,000  Level Cleveland Center
08:06AM 42.6864 -81.0633 262° West 395 455 23,000  Level Cleveland Center
08:07AM 42.6711 -81.2158 262° West 409 471 23,000  Level Cleveland Center
08:08AM 42.6514 -81.3650 260° West 416 479 23,000  Level Cleveland Center
08:09AM 42.6314 -81.5200 260° West 416 479 23,000 -1,020 Level Cleveland Center
08:10AM 42.6156 -81.6694 262° West 416 479 21,000 -1,980 Descending Cleveland Center
08:11AM 42.5997 -81.7989 261° West 409 471 19,100 -1,980 Descending Cleveland Center
08:12AM 42.5836 -81.9367 261° West 396 456 17,100 -2,100 Descending Cleveland Center
08:13AM 42.5672 -82.0717 261° West 384 442 15,000 -2,100 Descending Cleveland Center
08:14AM 42.5486 -82.2122 260° West 384 442 12,900 -2,160 Descending Cleveland Center
08:15AM 42.5439 -82.2572 262° West 377 434 12,300 -900 Descending Cleveland Center
08:15AM 42.5322 -82.3469 260° West 378 435 12,000 -240 Descending Cleveland Center
08:16AM 42.5203 -82.4397 260° West 274 315 12,000  Level Cleveland Center
08:16AM 42.5178 -82.4592 260° West 347 399 12,000  Level Cleveland Center
08:17AM 42.5150 -82.5014 265° West 277 319 12,000  Level Cleveland Center
08:17AM 42.5017 -82.5603 253° West 305 351 12,000  Level Cleveland Center
08:18AM 42.4861 -82.6047 245° Southwest 298 343 12,000 -540 Level Cleveland Center
08:18AM 42.4686 -82.6578 246° West 292 336 11,500 -1,080 Descending Cleveland Center
08:19AM 42.4531 -82.7050 246° West 273 314 10,800 -1,440 Descending Cleveland Center
08:19AM 42.4356 -82.7467 240° Southwest 280 322 10,100 -1,380 Descending Cleveland Center
08:20AM 42.4244 -82.7883 250° West 263 303 9,600 -1,320 Descending Cleveland Center
08:20AM 42.4172 -82.8444 260° West 270 311 8,800 -1,500 Descending Cleveland Center
08:21AM 42.4047 -82.9425 260° West 264 304 7,100 -1,440 Descending Cleveland Center
08:22AM 42.4019 -82.9761 264° West 265 305 7,000 -120 Descending Cleveland Center
08:22AM 42.3922 -83.0375 258° West 264 304 7,000  Level Cleveland Center
08:23AM 42.3892 -83.0908 266° West 220 253 7,000  Level Cleveland Center
08:23AM 42.3864 -83.1189 262° West 244 281 7,000 -480 Level Cleveland Center
08:24AM 42.4036 -83.1897 288° West 231 266 6,500 -840 Descending Cleveland Center
08:24AM 42.3992 -83.2008 242° Southwest 230 265 6,200 -1,680 Descending Cleveland Center
08:25AM 42.3736 -83.2222 212° Southwest 212 244 5,300 -2,280 Descending Cleveland Center